createdAt,value
2022-11-02T00:04:47.524Z,12.58
2022-11-02T00:09:50.488Z,12.62
2022-11-02T00:14:53.391Z,12.62
2022-11-02T00:19:57.791Z,12.55
2022-11-02T00:25:01.711Z,12.52
2022-11-02T00:30:05.463Z,12.49
2022-11-02T00:35:11.405Z,12.46
2022-11-02T00:40:14.434Z,12.45
2022-11-02T00:45:17.853Z,12.44
2022-11-02T00:50:22.252Z,12.49
2022-11-02T00:55:25.621Z,11.62
2022-11-02T01:00:32.343Z,11.23
2022-11-02T01:05:37.841Z,10.90
2022-11-02T01:10:44.063Z,10.77
2022-11-02T01:15:50.246Z,10.63
2022-11-02T01:20:58.949Z,10.63
2022-11-02T01:26:04.906Z,10.54
2022-11-02T01:31:10.711Z,10.50
2022-11-02T01:36:17.268Z,10.50
2022-11-02T01:41:20.361Z,10.48
2022-11-02T01:46:30.024Z,10.44
2022-11-02T01:51:41.222Z,10.47
2022-11-02T01:56:48.532Z,10.45
2022-11-02T02:01:51.586Z,10.50
2022-11-02T02:06:58.377Z,10.52
2022-11-02T02:12:01.485Z,10.49
2022-11-02T02:17:19.255Z,10.52
2022-11-02T02:23:11.684Z,10.57
2022-11-02T02:28:22.388Z,10.58
2022-11-02T02:33:31.957Z,10.82
2022-11-02T02:38:41.263Z,10.82
2022-11-02T02:43:50.270Z,10.79
2022-11-02T02:48:56.399Z,10.82
2022-11-02T02:54:02.314Z,10.85
2022-11-02T02:59:09.562Z,10.79
2022-11-02T03:04:13.758Z,10.79
2022-11-02T03:09:24.902Z,10.66
2022-11-02T03:14:44.043Z,10.66
2022-11-02T03:19:56.584Z,10.65
2022-11-02T03:25:05.787Z,10.72
2022-11-02T03:30:14.579Z,10.73
2022-11-02T03:35:30.044Z,10.87
2022-11-02T03:40:39.387Z,11.07
2022-11-02T03:45:47.859Z,11.17
2022-11-02T03:50:53.499Z,11.27
2022-11-02T03:56:03.918Z,11.30
2022-11-02T04:01:10.073Z,11.30
2022-11-02T04:06:16.318Z,11.41
2022-11-02T04:11:37.282Z,11.51
2022-11-02T04:16:46.295Z,11.48
2022-11-02T04:22:18.399Z,11.45
2022-11-02T04:27:25.055Z,11.47
2022-11-02T04:32:50.375Z,11.49
2022-11-02T04:38:12.114Z,11.45
2022-11-02T04:43:16.556Z,11.49
2022-11-02T04:48:21.024Z,11.54
2022-11-02T04:53:24.142Z,11.54
2022-11-02T04:58:27.788Z,11.55
2022-11-02T05:03:33.043Z,11.44
2022-11-02T05:08:37.630Z,11.48
2022-11-02T05:13:42.612Z,11.46
2022-11-02T05:18:47.152Z,11.42
2022-11-02T05:23:52.231Z,11.41
2022-11-02T05:28:55.408Z,11.37
2022-11-02T05:34:01.198Z,11.31
2022-11-02T05:39:04.723Z,11.26
2022-11-02T05:44:08.322Z,11.27
2022-11-02T05:49:15.882Z,11.29
2022-11-02T05:54:19.148Z,11.29
2022-11-02T05:59:22.081Z,11.24
2022-11-02T06:04:26.740Z,11.18
2022-11-02T06:09:29.722Z,11.17
2022-11-02T06:14:32.792Z,11.20
2022-11-02T06:19:37.099Z,11.12
2022-11-02T06:24:40.103Z,11.13
2022-11-02T06:29:43.124Z,11.16
2022-11-02T06:34:47.526Z,11.22
2022-11-02T06:39:50.604Z,11.13
2022-11-02T06:44:54.003Z,11.14
2022-11-02T06:49:58.556Z,11.10
2022-11-02T06:55:01.710Z,11.16
2022-11-02T07:00:05.505Z,11.13
2022-11-02T07:05:10.440Z,11.05
2022-11-02T07:10:13.516Z,11.12
2022-11-02T07:15:19.682Z,11.10
2022-11-02T07:20:24.970Z,11.07
2022-11-02T07:25:31.179Z,11.04
2022-11-02T07:30:35.663Z,11.05
2022-11-02T07:35:40.221Z,11.04
2022-11-02T07:40:43.415Z,11.02
2022-11-02T07:45:46.631Z,11.05
2022-11-02T07:50:50.963Z,11.10
2022-11-02T07:55:54.286Z,11.19
2022-11-02T08:00:59.985Z,11.39
2022-11-02T08:06:04.959Z,11.47
2022-11-02T08:11:09.667Z,11.42
2022-11-02T08:16:12.801Z,11.47
2022-11-02T08:21:17.281Z,11.54
2022-11-02T08:26:20.340Z,11.72
2022-11-02T08:31:23.879Z,11.79
2022-11-02T08:36:28.216Z,11.89
2022-11-02T08:41:31.201Z,12.01
2022-11-02T08:46:34.555Z,12.11
2022-11-02T08:51:39.025Z,12.27
2022-11-02T08:56:42.171Z,12.41
2022-11-02T09:01:45.339Z,12.52
2022-11-02T09:06:49.895Z,12.71
2022-11-02T09:11:52.915Z,13.01
2022-11-02T09:16:56.179Z,13.18
2022-11-02T09:22:04.875Z,13.23
2022-11-02T09:27:08.799Z,13.46
2022-11-02T09:32:11.814Z,13.70
2022-11-02T09:37:16.136Z,13.79
2022-11-02T09:42:24.112Z,13.95
2022-11-02T09:52:59.942Z,14.07
2022-11-02T09:58:07.313Z,14.15
2022-11-02T10:03:23.427Z,14.39
2022-11-02T10:08:37.935Z,14.54
2022-11-02T10:13:45.963Z,14.59
2022-11-02T10:18:50.647Z,14.55
2022-11-02T10:23:56.341Z,14.71
2022-11-02T10:29:03.122Z,14.82
2022-11-02T10:34:23.899Z,14.84
2022-11-02T10:39:34.487Z,14.89
2022-11-02T10:44:52.863Z,15.08
2022-11-02T10:50:25.407Z,15.08
2022-11-02T10:55:35.259Z,15.09
2022-11-02T11:00:39.550Z,15.15
2022-11-02T11:05:59.255Z,15.28
2022-11-02T11:11:23.241Z,15.23
2022-11-02T11:16:41.821Z,15.31
2022-11-02T11:21:45.825Z,15.34
2022-11-02T11:27:02.730Z,15.47
2022-11-02T11:32:06.305Z,15.49
2022-11-02T11:37:12.663Z,15.65
2022-11-02T11:42:20.286Z,15.65
2022-11-02T11:47:28.194Z,15.69
2022-11-02T11:52:34.275Z,15.67
2022-11-02T11:57:39.163Z,15.66
2022-11-02T12:02:44.682Z,15.81
2022-11-02T12:08:24.667Z,15.95
2022-11-02T12:13:53.739Z,16.00
2022-11-02T12:19:10.802Z,16.08
2022-11-02T12:24:26.689Z,16.03
2022-11-02T12:29:59.318Z,16.01
2022-11-02T12:35:29.058Z,16.15
2022-11-02T12:40:46.453Z,16.05
2022-11-02T12:45:59.667Z,16.03
2022-11-02T12:51:11.021Z,16.06
2022-11-02T12:56:19.523Z,16.11
2022-11-02T13:01:29.310Z,16.59
2022-11-02T13:06:38.107Z,16.61
2022-11-02T13:11:44.902Z,16.46
2022-11-02T13:16:51.635Z,16.31
2022-11-02T13:21:58.239Z,16.53
2022-11-02T13:27:14.672Z,16.46
2022-11-02T13:32:34.118Z,16.57
2022-11-02T13:37:42.401Z,16.59
2022-11-02T13:43:08.136Z,16.40
2022-11-02T13:48:39.882Z,16.59
2022-11-02T13:53:52.218Z,16.71
2022-11-02T13:58:59.083Z,16.75
2022-11-02T14:04:07.865Z,16.55
2022-11-02T14:09:19.189Z,16.51
2022-11-02T14:14:24.698Z,16.64
2022-11-02T14:19:49.068Z,16.61
2022-11-02T14:25:19.761Z,16.58
2022-11-02T14:30:46.732Z,16.44
2022-11-02T14:35:59.414Z,16.67
2022-11-02T14:41:17.703Z,16.62
2022-11-02T14:46:40.274Z,16.45
2022-11-02T14:51:46.951Z,16.29
2022-11-02T14:56:56.313Z,16.08
2022-11-02T15:02:02.905Z,15.84
2022-11-02T15:07:07.531Z,15.77
2022-11-02T15:12:27.954Z,15.60
2022-11-02T15:17:54.333Z,15.40
2022-11-02T15:23:28.227Z,15.24
2022-11-02T15:28:35.934Z,15.06
2022-11-02T15:33:43.158Z,14.93
2022-11-02T15:38:52.383Z,14.78
2022-11-02T15:44:22.788Z,14.61
2022-11-02T15:49:42.310Z,14.45
2022-11-02T15:54:57.558Z,14.30
2022-11-02T16:00:11.812Z,14.15
2022-11-02T16:05:21.089Z,14.00
2022-11-02T16:10:27.885Z,13.92
2022-11-02T16:15:31.082Z,13.80
2022-11-02T16:20:36.894Z,13.70
2022-11-02T16:25:44.871Z,13.61
2022-11-02T16:31:13.520Z,13.47
2022-11-02T16:36:21.311Z,13.39
2022-11-02T16:41:26.847Z,13.32
2022-11-02T16:46:32.441Z,13.21
2022-11-02T16:51:35.487Z,13.14
2022-11-02T16:56:39.899Z,13.03
2022-11-02T17:01:44.516Z,12.95
2022-11-02T17:06:49.744Z,12.88
2022-11-02T17:11:55.863Z,12.79
2022-11-02T17:17:01.698Z,12.74
2022-11-02T17:22:06.932Z,12.69
2022-11-02T17:27:25.916Z,12.63
2022-11-02T17:32:29.556Z,12.66
2022-11-02T17:37:33.662Z,12.61
2022-11-02T17:42:55.524Z,12.63
2022-11-02T17:48:00.193Z,12.60
2022-11-02T17:53:04.567Z,12.59
2022-11-02T17:58:09.324Z,12.51
2022-11-02T18:03:19.368Z,12.54
2022-11-02T18:08:22.390Z,12.51
2022-11-02T18:13:26.753Z,12.48
2022-11-02T18:18:29.712Z,12.43
2022-11-02T18:23:34.978Z,12.45
2022-11-02T18:28:39.622Z,12.38
2022-11-02T18:33:44.160Z,12.37
2022-11-02T18:38:47.149Z,12.32
2022-11-02T18:43:51.459Z,12.29
2022-11-02T18:48:54.425Z,12.25
2022-11-02T18:53:58.868Z,12.23
2022-11-02T18:59:05.693Z,12.19
2022-11-02T19:04:13.119Z,12.17
2022-11-02T19:09:21.513Z,12.03
2022-11-02T19:14:25.998Z,12.04
2022-11-02T19:19:29.024Z,12.07
2022-11-02T19:24:32.335Z,12.05
2022-11-02T19:29:36.783Z,12.01
2022-11-02T19:34:40.113Z,11.96
2022-11-02T19:39:43.252Z,11.97
2022-11-02T19:44:47.948Z,11.95
2022-11-02T19:49:51.205Z,11.95
2022-11-02T19:54:54.165Z,11.94
2022-11-02T19:59:58.712Z,11.91
2022-11-02T20:05:01.784Z,11.88
2022-11-02T20:10:05.222Z,11.91
2022-11-02T20:15:12.222Z,11.88
2022-11-02T20:20:15.203Z,11.88
2022-11-02T20:25:18.482Z,11.84
2022-11-02T20:30:23.937Z,11.85
2022-11-02T20:35:27.046Z,11.85
2022-11-02T20:40:33.829Z,11.79
2022-11-02T20:45:40.743Z,11.80
2022-11-02T20:50:45.589Z,11.76
2022-11-02T20:55:48.604Z,11.76
2022-11-02T21:00:53.550Z,11.75
2022-11-02T21:05:57.436Z,11.74
2022-11-02T21:11:01.774Z,11.73
2022-11-02T21:16:06.783Z,11.72
2022-11-02T21:21:11.556Z,11.73
2022-11-02T21:26:15.797Z,11.72
2022-11-02T21:31:21.762Z,11.69
2022-11-02T21:36:24.776Z,11.72
2022-11-02T21:41:29.451Z,11.67
2022-11-02T21:46:34.094Z,11.71
2022-11-02T21:51:38.555Z,11.70
2022-11-02T21:56:41.728Z,11.66
2022-11-02T22:01:47.250Z,11.70
2022-11-02T22:06:51.422Z,11.67
2022-11-02T22:12:16.867Z,11.65
2022-11-02T22:17:49.150Z,11.64
2022-11-02T22:22:44.211Z,11.61
2022-11-02T22:27:47.250Z,11.52
2022-11-02T22:32:51.928Z,11.49
2022-11-02T22:38:12.414Z,11.51
2022-11-02T22:43:15.314Z,11.47
2022-11-02T22:48:19.614Z,11.49
2022-11-02T22:53:23.729Z,11.49
2022-11-02T22:58:27.735Z,11.43
2022-11-02T23:03:33.865Z,11.42
2022-11-02T23:08:38.295Z,11.37
2022-11-02T23:13:41.436Z,11.36
2022-11-02T23:19:03.292Z,11.31
2022-11-02T23:24:24.406Z,11.32
2022-11-02T23:29:45.069Z,11.34
2022-11-02T23:35:06.901Z,11.34
2022-11-02T23:40:12.018Z,11.35
2022-11-02T23:45:15.036Z,11.34
2022-11-02T23:50:34.710Z,11.34
2022-11-02T23:55:54.339Z,11.32
